sensor_id;sensor_type;location;lat;lon;timestamp;P1;durP1;ratioP1;P2;durP2;ratioP2
37459;SDS011;23318;50.966;5.284;2023-04-01T00:01:40;6.68;;;1.30;;
37459;SDS011;23318;50.966;5.284;2023-04-01T00:04:06;5.88;;;1.52;;
37459;SDS011;23318;50.966;5.284;2023-04-01T00:06:31;4.90;;;1.30;;
37459;SDS011;23318;50.966;5.284;2023-04-01T00:08:57;4.45;;;0.88;;
37459;SDS011;23318;50.966;5.284;2023-04-01T00:11:23;3.10;;;0.80;;
37459;SDS011;23318;50.966;5.284;2023-04-01T00:13:49;4.65;;;1.23;;
37459;SDS011;23318;50.966;5.284;2023-04-01T00:16:15;4.05;;;0.45;;
37459;SDS011;23318;50.966;5.284;2023-04-01T00:18:41;3.63;;;1.02;;
37459;SDS011;23318;50.966;5.284;2023-04-01T00:21:07;3.80;;;1.33;;
37459;SDS011;23318;50.966;5.284;2023-04-01T00:23:33;3.08;;;0.60;;
37459;SDS011;23318;50.966;5.284;2023-04-01T00:26:00;3.25;;;0.73;;
37459;SDS011;23318;50.966;5.284;2023-04-01T00:28:27;2.60;;;0.77;;
37459;SDS011;23318;50.966;5.284;2023-04-01T00:30:53;5.07;;;0.98;;
37459;SDS011;23318;50.966;5.284;2023-04-01T00:33:19;4.50;;;0.63;;
37459;SDS011;23318;50.966;5.284;2023-04-01T00:35:45;5.10;;;1.40;;
37459;SDS011;23318;50.966;5.284;2023-04-01T00:38:11;3.05;;;0.77;;
37459;SDS011;23318;50.966;5.284;2023-04-01T00:40:39;2.40;;;0.70;;
37459;SDS011;23318;50.966;5.284;2023-04-01T00:43:17;4.15;;;0.93;;
37459;SDS011;23318;50.966;5.284;2023-04-01T00:45:45;4.50;;;1.60;;
37459;SDS011;23318;50.966;5.284;2023-04-01T00:48:15;2.97;;;1.25;;
37459;SDS011;23318;50.966;5.284;2023-04-01T00:50:54;4.88;;;1.73;;
37459;SDS011;23318;50.966;5.284;2023-04-01T00:53:25;2.63;;;1.40;;
37459;SDS011;23318;50.966;5.284;2023-04-01T00:56:13;5.05;;;1.42;;
37459;SDS011;23318;50.966;5.284;2023-04-01T00:58:41;6.80;;;1.30;;
37459;SDS011;23318;50.966;5.284;2023-04-01T01:01:18;3.38;;;1.10;;
37459;SDS011;23318;50.966;5.284;2023-04-01T01:03:46;4.75;;;0.98;;
37459;SDS011;23318;50.966;5.284;2023-04-01T01:06:26;2.53;;;0.85;;
37459;SDS011;23318;50.966;5.284;2023-04-01T01:14:49;3.13;;;1.30;;
37459;SDS011;23318;50.966;5.284;2023-04-01T01:20:18;3.05;;;1.23;;
37459;SDS011;23318;50.966;5.284;2023-04-01T01:26:36;4.88;;;1.73;;
37459;SDS011;23318;50.966;5.284;2023-04-01T01:29:28;4.30;;;1.35;;
37459;SDS011;23318;50.966;5.284;2023-04-01T01:38:04;5.25;;;2.13;;
37459;SDS011;23318;50.966;5.284;2023-04-01T01:40:34;3.38;;;1.70;;
37459;SDS011;23318;50.966;5.284;2023-04-01T01:43:06;4.15;;;1.92;;
37459;SDS011;23318;50.966;5.284;2023-04-01T01:48:05;7.30;;;2.50;;
37459;SDS011;23318;50.966;5.284;2023-04-01T01:50:33;6.35;;;2.03;;
37459;SDS011;23318;50.966;5.284;2023-04-01T01:53:05;4.03;;;2.10;;
37459;SDS011;23318;50.966;5.284;2023-04-01T01:55:34;3.97;;;1.73;;
37459;SDS011;23318;50.966;5.284;2023-04-01T01:58:10;6.68;;;1.42;;
37459;SDS011;23318;50.966;5.284;2023-04-01T02:00:41;1.63;;;1.15;;
37459;SDS011;23318;50.966;5.284;2023-04-01T02:03:10;2.90;;;1.77;;
37459;SDS011;23318;50.966;5.284;2023-04-01T02:05:38;3.45;;;1.30;;
37459;SDS011;23318;50.966;5.284;2023-04-01T02:08:15;4.32;;;1.58;;
37459;SDS011;23318;50.966;5.284;2023-04-01T02:10:48;4.38;;;1.45;;
37459;SDS011;23318;50.966;5.284;2023-04-01T02:16:27;6.13;;;1.27;;
37459;SDS011;23318;50.966;5.284;2023-04-01T02:18:57;1.63;;;0.98;;
37459;SDS011;23318;50.966;5.284;2023-04-01T02:21:27;3.38;;;1.17;;
37459;SDS011;23318;50.966;5.284;2023-04-01T02:23:56;4.07;;;1.00;;
37459;SDS011;23318;50.966;5.284;2023-04-01T02:26:24;2.10;;;1.20;;
37459;SDS011;23318;50.966;5.284;2023-04-01T02:28:52;3.05;;;0.95;;
37459;SDS011;23318;50.966;5.284;2023-04-01T02:31:19;3.75;;;1.00;;
37459;SDS011;23318;50.966;5.284;2023-04-01T02:33:46;3.30;;;1.38;;
37459;SDS011;23318;50.966;5.284;2023-04-01T02:36:13;2.13;;;1.13;;
37459;SDS011;23318;50.966;5.284;2023-04-01T02:38:40;3.63;;;1.15;;
37459;SDS011;23318;50.966;5.284;2023-04-01T02:41:07;2.80;;;1.30;;
37459;SDS011;23318;50.966;5.284;2023-04-01T02:43:33;1.92;;;0.95;;
37459;SDS011;23318;50.966;5.284;2023-04-01T02:45:59;4.03;;;1.10;;
37459;SDS011;23318;50.966;5.284;2023-04-01T02:48:26;0.90;;;0.73;;
37459;SDS011;23318;50.966;5.284;2023-04-01T02:50:52;3.05;;;0.70;;
37459;SDS011;23318;50.966;5.284;2023-04-01T02:53:18;2.88;;;0.73;;
37459;SDS011;23318;50.966;5.284;2023-04-01T02:55:43;2.25;;;0.70;;
37459;SDS011;23318;50.966;5.284;2023-04-01T02:58:10;0.77;;;0.77;;
37459;SDS011;23318;50.966;5.284;2023-04-01T03:00:35;1.35;;;0.60;;
37459;SDS011;23318;50.966;5.284;2023-04-01T03:03:02;1.80;;;0.60;;
37459;SDS011;23318;50.966;5.284;2023-04-01T03:05:28;2.72;;;1.20;;
37459;SDS011;23318;50.966;5.284;2023-04-01T03:07:54;2.88;;;1.42;;
37459;SDS011;23318;50.966;5.284;2023-04-01T03:10:20;1.15;;;1.00;;
37459;SDS011;23318;50.966;5.284;2023-04-01T03:12:45;1.52;;;1.20;;
37459;SDS011;23318;50.966;5.284;2023-04-01T03:15:13;2.15;;;1.10;;
37459;SDS011;23318;50.966;5.284;2023-04-01T03:17:40;1.65;;;1.20;;
37459;SDS011;23318;50.966;5.284;2023-04-01T03:20:06;2.22;;;1.67;;
37459;SDS011;23318;50.966;5.284;2023-04-01T03:22:33;5.60;;;2.22;;
37459;SDS011;23318;50.966;5.284;2023-04-01T03:25:00;3.25;;;1.80;;
37459;SDS011;23318;50.966;5.284;2023-04-01T03:27:27;3.42;;;1.70;;
37459;SDS011;23318;50.966;5.284;2023-04-01T03:29:53;7.22;;;2.10;;
37459;SDS011;23318;50.966;5.284;2023-04-01T03:32:19;3.17;;;2.08;;
37459;SDS011;23318;50.966;5.284;2023-04-01T03:34:45;5.32;;;2.30;;
37459;SDS011;23318;50.966;5.284;2023-04-01T03:37:10;3.97;;;1.95;;
37459;SDS011;23318;50.966;5.284;2023-04-01T03:39:36;2.42;;;1.17;;
37459;SDS011;23318;50.966;5.284;2023-04-01T03:42:02;4.00;;;1.80;;
37459;SDS011;23318;50.966;5.284;2023-04-01T03:44:31;3.03;;;1.48;;
37459;SDS011;23318;50.966;5.284;2023-04-01T03:47:00;3.40;;;1.70;;
37459;SDS011;23318;50.966;5.284;2023-04-01T03:49:26;3.83;;;1.45;;
37459;SDS011;23318;50.966;5.284;2023-04-01T03:51:51;5.30;;;1.35;;
37459;SDS011;23318;50.966;5.284;2023-04-01T03:54:17;4.43;;;1.35;;
37459;SDS011;23318;50.966;5.284;2023-04-01T03:56:45;4.13;;;1.52;;
37459;SDS011;23318;50.966;5.284;2023-04-01T03:59:11;2.83;;;1.67;;
37459;SDS011;23318;50.966;5.284;2023-04-01T04:01:37;2.05;;;1.10;;
37459;SDS011;23318;50.966;5.284;2023-04-01T04:04:03;2.00;;;1.10;;
37459;SDS011;23318;50.966;5.284;2023-04-01T04:06:29;2.90;;;1.40;;
37459;SDS011;23318;50.966;5.284;2023-04-01T04:08:55;8.95;;;1.42;;
37459;SDS011;23318;50.966;5.284;2023-04-01T04:11:21;3.80;;;1.40;;
37459;SDS011;23318;50.966;5.284;2023-04-01T04:13:47;2.80;;;1.20;;
37459;SDS011;23318;50.966;5.284;2023-04-01T04:16:15;3.33;;;1.10;;
37459;SDS011;23318;50.966;5.284;2023-04-01T04:18:41;3.42;;;1.35;;
37459;SDS011;23318;50.966;5.284;2023-04-01T04:21:10;3.88;;;1.10;;
37459;SDS011;23318;50.966;5.284;2023-04-01T04:23:40;2.30;;;1.05;;
37459;SDS011;23318;50.966;5.284;2023-04-01T04:26:07;3.60;;;1.40;;
37459;SDS011;23318;50.966;5.284;2023-04-01T04:28:34;5.53;;;1.40;;
37459;SDS011;23318;50.966;5.284;2023-04-01T04:31:00;3.55;;;1.20;;
37459;SDS011;23318;50.966;5.284;2023-04-01T04:33:26;2.67;;;0.90;;
37459;SDS011;23318;50.966;5.284;2023-04-01T04:35:54;5.50;;;1.52;;
37459;SDS011;23318;50.966;5.284;2023-04-01T04:38:21;3.17;;;1.58;;
37459;SDS011;23318;50.966;5.284;2023-04-01T04:40:47;4.93;;;1.98;;
37459;SDS011;23318;50.966;5.284;2023-04-01T04:43:14;5.38;;;2.25;;
37459;SDS011;23318;50.966;5.284;2023-04-01T04:45:41;7.18;;;2.67;;
37459;SDS011;23318;50.966;5.284;2023-04-01T04:48:10;7.72;;;3.05;;
37459;SDS011;23318;50.966;5.284;2023-04-01T04:50:43;8.43;;;3.30;;
37459;SDS011;23318;50.966;5.284;2023-04-01T04:53:10;7.35;;;3.53;;
37459;SDS011;23318;50.966;5.284;2023-04-01T04:55:37;7.68;;;3.25;;
37459;SDS011;23318;50.966;5.284;2023-04-01T04:58:02;10.65;;;4.32;;
37459;SDS011;23318;50.966;5.284;2023-04-01T05:00:28;9.95;;;3.80;;
37459;SDS011;23318;50.966;5.284;2023-04-01T05:02:54;7.35;;;4.53;;
37459;SDS011;23318;50.966;5.284;2023-04-01T05:05:20;6.05;;;4.47;;
37459;SDS011;23318;50.966;5.284;2023-04-01T05:07:46;7.78;;;4.55;;
37459;SDS011;23318;50.966;5.284;2023-04-01T05:10:11;15.32;;;5.30;;
37459;SDS011;23318;50.966;5.284;2023-04-01T05:12:37;10.60;;;5.15;;
37459;SDS011;23318;50.966;5.284;2023-04-01T05:15:06;13.05;;;5.97;;
37459;SDS011;23318;50.966;5.284;2023-04-01T05:17:33;13.85;;;6.18;;
37459;SDS011;23318;50.966;5.284;2023-04-01T05:19:59;13.52;;;6.85;;
37459;SDS011;23318;50.966;5.284;2023-04-01T05:22:24;15.55;;;6.57;;
37459;SDS011;23318;50.966;5.284;2023-04-01T05:24:51;12.45;;;6.20;;
37459;SDS011;23318;50.966;5.284;2023-04-01T05:27:16;13.02;;;6.53;;
37459;SDS011;23318;50.966;5.284;2023-04-01T05:29:42;17.35;;;6.93;;
37459;SDS011;23318;50.966;5.284;2023-04-01T05:32:08;11.70;;;6.93;;
37459;SDS011;23318;50.966;5.284;2023-04-01T05:34:34;15.32;;;7.22;;
37459;SDS011;23318;50.966;5.284;2023-04-01T05:37:00;13.73;;;6.63;;
37459;SDS011;23318;50.966;5.284;2023-04-01T05:39:25;12.10;;;6.97;;
37459;SDS011;23318;50.966;5.284;2023-04-01T05:41:51;13.23;;;6.80;;
37459;SDS011;23318;50.966;5.284;2023-04-01T05:44:17;12.77;;;7.40;;
37459;SDS011;23318;50.966;5.284;2023-04-01T05:46:43;10.38;;;5.78;;
37459;SDS011;23318;50.966;5.284;2023-04-01T05:49:08;13.27;;;7.32;;
37459;SDS011;23318;50.966;5.284;2023-04-01T05:51:34;14.82;;;7.45;;
37459;SDS011;23318;50.966;5.284;2023-04-01T05:54:00;12.80;;;7.70;;
37459;SDS011;23318;50.966;5.284;2023-04-01T05:56:26;13.10;;;7.28;;
37459;SDS011;23318;50.966;5.284;2023-04-01T05:58:52;11.90;;;7.28;;
37459;SDS011;23318;50.966;5.284;2023-04-01T06:01:19;12.88;;;6.72;;
37459;SDS011;23318;50.966;5.284;2023-04-01T06:03:45;13.65;;;6.50;;
37459;SDS011;23318;50.966;5.284;2023-04-01T06:06:23;6.95;;;5.53;;
37459;SDS011;23318;50.966;5.284;2023-04-01T06:08:53;9.77;;;4.68;;
37459;SDS011;23318;50.966;5.284;2023-04-01T06:11:28;6.40;;;4.82;;
37459;SDS011;23318;50.966;5.284;2023-04-01T06:19:34;9.10;;;5.28;;
37459;SDS011;23318;50.966;5.284;2023-04-01T06:36:40;5.78;;;4.10;;
37459;SDS011;23318;50.966;5.284;2023-04-01T06:42:34;4.43;;;3.23;;
37459;SDS011;23318;50.966;5.284;2023-04-01T06:45:20;5.00;;;3.60;;
37459;SDS011;23318;50.966;5.284;2023-04-01T06:50:51;4.97;;;3.70;;
37459;SDS011;23318;50.966;5.284;2023-04-01T06:53:21;5.18;;;4.28;;
37459;SDS011;23318;50.966;5.284;2023-04-01T06:56:16;3.90;;;3.60;;
37459;SDS011;23318;50.966;5.284;2023-04-01T06:59:05;6.00;;;4.00;;
37459;SDS011;23318;50.966;5.284;2023-04-01T07:01:42;6.38;;;5.05;;
37459;SDS011;23318;50.966;5.284;2023-04-01T07:04:19;6.32;;;4.32;;
37459;SDS011;23318;50.966;5.284;2023-04-01T07:07:16;6.70;;;2.40;;
37459;SDS011;23318;50.966;5.284;2023-04-01T07:09:52;2.47;;;2.28;;
37459;SDS011;23318;50.966;5.284;2023-04-01T07:15:20;2.50;;;2.30;;
37459;SDS011;23318;50.966;5.284;2023-04-01T07:17:59;3.25;;;2.55;;
37459;SDS011;23318;50.966;5.284;2023-04-01T07:20:31;2.58;;;2.38;;
37459;SDS011;23318;50.966;5.284;2023-04-01T07:23:04;2.53;;;2.00;;
37459;SDS011;23318;50.966;5.284;2023-04-01T07:25:39;2.38;;;2.15;;
37459;SDS011;23318;50.966;5.284;2023-04-01T07:41:36;2.22;;;1.80;;
37459;SDS011;23318;50.966;5.284;2023-04-01T07:46:50;1.90;;;1.55;;
37459;SDS011;23318;50.966;5.284;2023-04-01T07:52:31;2.15;;;1.90;;
37459;SDS011;23318;50.966;5.284;2023-04-01T07:57:56;3.15;;;2.17;;
37459;SDS011;23318;50.966;5.284;2023-04-01T08:03:52;2.83;;;2.40;;
37459;SDS011;23318;50.966;5.284;2023-04-01T08:06:40;3.35;;;2.05;;
37459;SDS011;23318;50.966;5.284;2023-04-01T08:14:43;2.25;;;2.05;;
37459;SDS011;23318;50.966;5.284;2023-04-01T08:17:34;2.17;;;1.77;;
37459;SDS011;23318;50.966;5.284;2023-04-01T08:23:33;3.65;;;2.60;;
37459;SDS011;23318;50.966;5.284;2023-04-01T08:26:19;2.20;;;2.00;;
37459;SDS011;23318;50.966;5.284;2023-04-01T08:31:49;2.67;;;2.25;;
37459;SDS011;23318;50.966;5.284;2023-04-01T08:34:22;3.88;;;2.35;;
37459;SDS011;23318;50.966;5.284;2023-04-01T08:36:53;4.00;;;2.40;;
37459;SDS011;23318;50.966;5.284;2023-04-01T08:39:29;4.90;;;2.80;;
37459;SDS011;23318;50.966;5.284;2023-04-01T08:47:54;2.92;;;2.72;;
37459;SDS011;23318;50.966;5.284;2023-04-01T08:56:57;3.78;;;3.13;;
37459;SDS011;23318;50.966;5.284;2023-04-01T08:59:43;5.75;;;3.17;;
37459;SDS011;23318;50.966;5.284;2023-04-01T09:05:42;2.70;;;2.45;;
37459;SDS011;23318;50.966;5.284;2023-04-01T09:08:35;4.45;;;2.78;;
37459;SDS011;23318;50.966;5.284;2023-04-01T09:22:50;4.28;;;3.80;;
37459;SDS011;23318;50.966;5.284;2023-04-01T09:25:38;4.57;;;3.90;;
37459;SDS011;23318;50.966;5.284;2023-04-01T09:28:53;4.05;;;3.65;;
37459;SDS011;23318;50.966;5.284;2023-04-01T09:40:18;4.75;;;4.28;;
37459;SDS011;23318;50.966;5.284;2023-04-01T10:05:50;1.90;;;1.80;;
37459;SDS011;23318;50.966;5.284;2023-04-01T10:20:01;3.92;;;2.20;;
37459;SDS011;23318;50.966;5.284;2023-04-01T10:28:08;2.25;;;2.08;;
37459;SDS011;23318;50.966;5.284;2023-04-01T10:31:25;4.43;;;2.78;;
37459;SDS011;23318;50.966;5.284;2023-04-01T10:34:27;3.70;;;3.40;;
37459;SDS011;23318;50.966;5.284;2023-04-01T10:37:23;3.17;;;2.90;;
37459;SDS011;23318;50.966;5.284;2023-04-01T11:19:08;4.35;;;3.97;;
37459;SDS011;23318;50.966;5.284;2023-04-01T11:32:24;6.72;;;6.13;;
37459;SDS011;23318;50.966;5.284;2023-04-01T11:40:43;11.30;;;8.20;;
37459;SDS011;23318;50.966;5.284;2023-04-01T12:10:02;11.80;;;9.02;;
37459;SDS011;23318;50.966;5.284;2023-04-01T12:15:41;10.63;;;8.65;;
37459;SDS011;23318;50.966;5.284;2023-04-01T12:18:27;10.63;;;7.40;;
37459;SDS011;23318;50.966;5.284;2023-04-01T12:30:14;8.15;;;5.80;;
37459;SDS011;23318;50.966;5.284;2023-04-01T12:35:37;12.55;;;5.43;;
37459;SDS011;23318;50.966;5.284;2023-04-01T12:41:21;5.40;;;4.90;;
37459;SDS011;23318;50.966;5.284;2023-04-01T12:49:55;8.35;;;6.65;;
37459;SDS011;23318;50.966;5.284;2023-04-01T12:52:25;10.80;;;7.57;;
37459;SDS011;23318;50.966;5.284;2023-04-01T12:55:06;9.10;;;6.90;;
37459;SDS011;23318;50.966;5.284;2023-04-01T12:57:43;9.48;;;7.43;;
37459;SDS011;23318;50.966;5.284;2023-04-01T13:09:05;7.72;;;6.88;;
37459;SDS011;23318;50.966;5.284;2023-04-01T13:11:58;7.28;;;6.20;;
37459;SDS011;23318;50.966;5.284;2023-04-01T13:17:58;6.45;;;5.90;;
37459;SDS011;23318;50.966;5.284;2023-04-01T13:28:45;7.90;;;5.15;;
37459;SDS011;23318;50.966;5.284;2023-04-01T13:31:35;7.30;;;5.85;;
37459;SDS011;23318;50.966;5.284;2023-04-01T13:39:45;5.70;;;5.07;;
37459;SDS011;23318;50.966;5.284;2023-04-01T13:44:51;8.35;;;7.45;;
37459;SDS011;23318;50.966;5.284;2023-04-01T13:47:36;8.63;;;6.97;;
37459;SDS011;23318;50.966;5.284;2023-04-01T14:01:30;8.02;;;6.82;;
37459;SDS011;23318;50.966;5.284;2023-04-01T14:30:37;4.15;;;3.60;;
37459;SDS011;23318;50.966;5.284;2023-04-01T14:36:30;3.50;;;3.03;;
37459;SDS011;23318;50.966;5.284;2023-04-01T14:48:23;2.47;;;2.05;;
37459;SDS011;23318;50.966;5.284;2023-04-01T14:50:51;2.20;;;2.08;;
37459;SDS011;23318;50.966;5.284;2023-04-01T14:55:53;2.30;;;2.00;;
37459;SDS011;23318;50.966;5.284;2023-04-01T14:58:20;6.75;;;2.40;;
37459;SDS011;23318;50.966;5.284;2023-04-01T15:06:51;3.88;;;2.67;;
37459;SDS011;23318;50.966;5.284;2023-04-01T15:28:25;3.00;;;2.80;;
37459;SDS011;23318;50.966;5.284;2023-04-01T15:31:04;2.90;;;2.70;;
37459;SDS011;23318;50.966;5.284;2023-04-01T15:37:02;3.83;;;2.78;;
37459;SDS011;23318;50.966;5.284;2023-04-01T15:47:53;2.50;;;1.58;;
37459;SDS011;23318;50.966;5.284;2023-04-01T15:50:35;2.20;;;2.00;;
37459;SDS011;23318;50.966;5.284;2023-04-01T15:53:13;5.60;;;1.90;;
37459;SDS011;23318;50.966;5.284;2023-04-01T16:20:21;1.48;;;1.13;;
37459;SDS011;23318;50.966;5.284;2023-04-01T16:22:59;1.83;;;1.33;;
37459;SDS011;23318;50.966;5.284;2023-04-01T16:45:15;1.65;;;0.73;;
37459;SDS011;23318;50.966;5.284;2023-04-01T16:48:15;1.52;;;1.17;;
37459;SDS011;23318;50.966;5.284;2023-04-01T16:50:51;2.10;;;1.90;;
37459;SDS011;23318;50.966;5.284;2023-04-01T16:56:16;7.55;;;4.05;;
37459;SDS011;23318;50.966;5.284;2023-04-01T16:58:59;7.70;;;5.97;;
37459;SDS011;23318;50.966;5.284;2023-04-01T17:09:56;10.40;;;8.98;;
37459;SDS011;23318;50.966;5.284;2023-04-01T17:20:32;6.25;;;5.45;;
37459;SDS011;23318;50.966;5.284;2023-04-01T17:23:11;5.68;;;5.05;;
37459;SDS011;23318;50.966;5.284;2023-04-01T17:29:28;10.88;;;4.60;;
37459;SDS011;23318;50.966;5.284;2023-04-01T17:39:46;6.43;;;3.97;;
37459;SDS011;23318;50.966;5.284;2023-04-01T17:48:03;4.43;;;3.83;;
37459;SDS011;23318;50.966;5.284;2023-04-01T17:53:28;4.38;;;3.97;;
37459;SDS011;23318;50.966;5.284;2023-04-01T17:59:12;6.00;;;3.65;;
37459;SDS011;23318;50.966;5.284;2023-04-01T18:15:39;4.82;;;4.28;;
37459;SDS011;23318;50.966;5.284;2023-04-01T18:18:43;4.97;;;4.28;;
37459;SDS011;23318;50.966;5.284;2023-04-01T18:21:50;4.68;;;4.00;;
37459;SDS011;23318;50.966;5.284;2023-04-01T18:27:22;4.45;;;4.07;;
37459;SDS011;23318;50.966;5.284;2023-04-01T18:32:35;3.78;;;3.47;;
37459;SDS011;23318;50.966;5.284;2023-04-01T18:35:10;4.38;;;3.33;;
37459;SDS011;23318;50.966;5.284;2023-04-01T18:41:03;5.63;;;3.67;;
37459;SDS011;23318;50.966;5.284;2023-04-01T18:44:11;5.80;;;4.03;;
37459;SDS011;23318;50.966;5.284;2023-04-01T19:06:41;6.45;;;5.47;;
37459;SDS011;23318;50.966;5.284;2023-04-01T19:09:27;7.40;;;5.53;;
37459;SDS011;23318;50.966;5.284;2023-04-01T19:12:14;5.05;;;4.55;;
37459;SDS011;23318;50.966;5.284;2023-04-01T19:17:53;9.30;;;5.88;;
37459;SDS011;23318;50.966;5.284;2023-04-01T19:20:26;6.85;;;6.00;;
37459;SDS011;23318;50.966;5.284;2023-04-01T19:25:53;8.40;;;6.22;;
37459;SDS011;23318;50.966;5.284;2023-04-01T19:30:58;7.90;;;7.10;;
37459;SDS011;23318;50.966;5.284;2023-04-01T19:33:32;10.63;;;6.47;;
37459;SDS011;23318;50.966;5.284;2023-04-01T19:42:05;10.02;;;6.93;;
37459;SDS011;23318;50.966;5.284;2023-04-01T19:50:49;8.35;;;7.47;;
37459;SDS011;23318;50.966;5.284;2023-04-01T19:54:04;8.18;;;7.38;;
37459;SDS011;23318;50.966;5.284;2023-04-01T19:56:19;7.10;;;6.30;;
37459;SDS011;23318;50.966;5.284;2023-04-01T19:59:21;9.80;;;7.63;;
37459;SDS011;23318;50.966;5.284;2023-04-01T20:04:29;8.45;;;6.63;;
37459;SDS011;23318;50.966;5.284;2023-04-01T20:07:14;8.50;;;7.65;;
37459;SDS011;23318;50.966;5.284;2023-04-01T20:15:27;8.93;;;7.30;;
37459;SDS011;23318;50.966;5.284;2023-04-01T20:18:00;11.52;;;9.30;;
37459;SDS011;23318;50.966;5.284;2023-04-01T20:20:29;11.77;;;8.90;;
37459;SDS011;23318;50.966;5.284;2023-04-01T20:23:12;12.43;;;10.00;;
37459;SDS011;23318;50.966;5.284;2023-04-01T20:26:04;12.82;;;10.60;;
37459;SDS011;23318;50.966;5.284;2023-04-01T20:31:37;12.98;;;10.95;;
37459;SDS011;23318;50.966;5.284;2023-04-01T20:34:12;17.83;;;13.07;;
37459;SDS011;23318;50.966;5.284;2023-04-01T20:47:51;13.38;;;11.93;;
37459;SDS011;23318;50.966;5.284;2023-04-01T20:53:12;13.57;;;10.30;;
37459;SDS011;23318;50.966;5.284;2023-04-01T21:11:16;9.70;;;8.70;;
37459;SDS011;23318;50.966;5.284;2023-04-01T21:16:25;8.18;;;7.18;;
37459;SDS011;23318;50.966;5.284;2023-04-01T21:33:29;9.15;;;7.85;;
37459;SDS011;23318;50.966;5.284;2023-04-01T21:44:24;17.75;;;13.63;;
37459;SDS011;23318;50.966;5.284;2023-04-01T21:47:22;12.77;;;11.38;;
37459;SDS011;23318;50.966;5.284;2023-04-01T22:09:21;12.15;;;9.95;;
37459;SDS011;23318;50.966;5.284;2023-04-01T22:12:03;11.40;;;10.20;;
37459;SDS011;23318;50.966;5.284;2023-04-01T22:17:54;12.18;;;10.63;;
37459;SDS011;23318;50.966;5.284;2023-04-01T22:23:19;9.20;;;8.30;;
37459;SDS011;23318;50.966;5.284;2023-04-01T22:25:55;9.98;;;8.70;;
37459;SDS011;23318;50.966;5.284;2023-04-01T22:32:17;8.00;;;7.20;;
37459;SDS011;23318;50.966;5.284;2023-04-01T22:37:30;7.65;;;6.88;;
37459;SDS011;23318;50.966;5.284;2023-04-01T22:40:25;8.50;;;7.68;;
37459;SDS011;23318;50.966;5.284;2023-04-01T22:42:55;10.38;;;7.75;;
37459;SDS011;23318;50.966;5.284;2023-04-01T22:45:33;8.70;;;7.80;;
37459;SDS011;23318;50.966;5.284;2023-04-01T22:48:26;8.55;;;7.75;;
37459;SDS011;23318;50.966;5.284;2023-04-01T22:57:00;14.63;;;11.25;;
37459;SDS011;23318;50.966;5.284;2023-04-01T22:59:45;11.23;;;10.13;;
37459;SDS011;23318;50.966;5.284;2023-04-01T23:02:30;12.25;;;10.40;;
37459;SDS011;23318;50.966;5.284;2023-04-01T23:05:05;9.25;;;8.35;;
37459;SDS011;23318;50.966;5.284;2023-04-01T23:10:15;10.15;;;9.15;;
37459;SDS011;23318;50.966;5.284;2023-04-01T23:13:04;10.55;;;9.40;;
37459;SDS011;23318;50.966;5.284;2023-04-01T23:15:37;11.77;;;10.57;;
37459;SDS011;23318;50.966;5.284;2023-04-01T23:28:53;14.50;;;12.88;;
37459;SDS011;23318;50.966;5.284;2023-04-01T23:31:39;14.18;;;11.90;;
37459;SDS011;23318;50.966;5.284;2023-04-01T23:36:39;19.05;;;11.80;;
37459;SDS011;23318;50.966;5.284;2023-04-01T23:41:53;12.00;;;10.70;;
37459;SDS011;23318;50.966;5.284;2023-04-01T23:44:21;10.90;;;9.80;;
37459;SDS011;23318;50.966;5.284;2023-04-01T23:46:50;10.13;;;8.88;;
37459;SDS011;23318;50.966;5.284;2023-04-01T23:49:18;10.02;;;8.80;;
37459;SDS011;23318;50.966;5.284;2023-04-01T23:51:50;8.75;;;7.70;;
37459;SDS011;23318;50.966;5.284;2023-04-01T23:54:27;12.35;;;11.05;;
37459;SDS011;23318;50.966;5.284;2023-04-01T23:56:55;13.55;;;11.52;;
37459;SDS011;23318;50.966;5.284;2023-04-01T23:59:23;11.65;;;10.45;;
